createdAt,value
2023-01-06T00:01:42.977Z,22.30
2023-01-06T00:04:11.035Z,17.50
2023-01-06T00:06:39.102Z,21.80
2023-01-06T00:09:06.922Z,21.90
2023-01-06T00:11:37.407Z,19.40
2023-01-06T00:14:05.483Z,12.60
2023-01-06T00:16:33.471Z,25.30
2023-01-06T00:19:01.575Z,31.00
2023-01-06T00:21:29.824Z,29.70
2023-01-06T00:23:57.806Z,20.50
2023-01-06T00:26:26.794Z,25.20
2023-01-06T00:28:56.760Z,30.70
2023-01-06T00:31:28.451Z,58.10
2023-01-06T00:33:58.179Z,46.90
2023-01-06T00:36:26.265Z,15.90
2023-01-06T00:38:54.423Z,31.50
2023-01-06T00:41:42.521Z,49.80
2023-01-06T00:44:10.489Z,60.70
2023-01-06T00:46:38.474Z,28.10
2023-01-06T00:49:07.607Z,24.10
2023-01-06T00:51:39.869Z,20.80
2023-01-06T00:54:11.618Z,35.20
2023-01-06T00:56:46.493Z,34.00
2023-01-06T00:59:18.103Z,34.60
2023-01-06T01:01:48.741Z,31.20
2023-01-06T01:04:18.340Z,24.70
2023-01-06T01:06:47.701Z,29.70
2023-01-06T01:09:19.431Z,32.70
2023-01-06T01:12:06.700Z,55.40
2023-01-06T01:14:55.814Z,49.40
2023-01-06T01:17:28.992Z,29.50
2023-01-06T01:20:00.178Z,26.50
2023-01-06T01:22:31.593Z,24.60
2023-01-06T01:25:02.477Z,18.60
2023-01-06T01:27:30.530Z,24.40
2023-01-06T01:29:58.601Z,29.90
2023-01-06T01:32:26.709Z,23.90
2023-01-06T01:34:54.632Z,19.30
2023-01-06T01:37:22.693Z,70.30
2023-01-06T01:39:50.660Z,37.00
2023-01-06T01:42:21.208Z,19.00
2023-01-06T01:44:49.235Z,22.50
2023-01-06T01:47:33.217Z,14.70
2023-01-06T01:50:15.003Z,21.40
2023-01-06T01:52:46.005Z,19.40
2023-01-06T01:55:17.173Z,18.80
2023-01-06T01:57:52.926Z,21.20
2023-01-06T02:00:21.183Z,13.60
2023-01-06T02:02:50.357Z,16.90
2023-01-06T02:05:24.068Z,11.30
2023-01-06T02:07:53.324Z,14.70
2023-01-06T02:10:24.274Z,12.80
2023-01-06T02:12:57.745Z,16.70
2023-01-06T02:15:33.046Z,16.90
2023-01-06T02:18:45.957Z,19.60
2023-01-06T02:21:52.027Z,13.20
2023-01-06T02:24:32.224Z,21.10
2023-01-06T02:27:29.115Z,14.90
2023-01-06T02:30:15.486Z,10.40
2023-01-06T02:33:00.458Z,10.50
2023-01-06T02:35:51.092Z,9.00
2023-01-06T02:38:46.582Z,12.30
2023-01-06T02:44:11.324Z,8.80
2023-01-06T02:47:00.055Z,5.70
2023-01-06T02:49:48.302Z,5.90
2023-01-06T02:52:46.645Z,11.60
2023-01-06T02:55:27.720Z,8.50
2023-01-06T02:58:10.507Z,8.60
2023-01-06T03:00:48.515Z,7.50
2023-01-06T03:03:23.906Z,9.50
2023-01-06T03:05:59.890Z,19.50
2023-01-06T03:08:31.611Z,15.30
2023-01-06T03:11:02.557Z,11.00
2023-01-06T03:13:37.772Z,6.90
2023-01-06T03:16:07.900Z,10.80
2023-01-06T03:18:38.996Z,9.50
2023-01-06T03:21:14.929Z,8.00
2023-01-06T03:23:47.390Z,10.70
2023-01-06T03:26:15.622Z,9.80
2023-01-06T03:28:46.129Z,8.60
2023-01-06T03:31:49.147Z,14.30
2023-01-06T03:34:56.256Z,12.70
2023-01-06T03:37:52.352Z,12.00
2023-01-06T03:40:27.951Z,10.70
2023-01-06T03:43:16.948Z,15.50
2023-01-06T03:46:05.656Z,9.30
2023-01-06T03:48:56.092Z,11.70
2023-01-06T03:51:36.248Z,8.50
2023-01-06T03:54:38.125Z,6.80
2023-01-06T03:57:37.952Z,9.70
2023-01-06T04:00:33.271Z,7.10
2023-01-06T04:03:15.320Z,7.20
2023-01-06T04:05:44.959Z,6.30
2023-01-06T04:08:13.169Z,8.70
2023-01-06T04:10:42.470Z,7.00
2023-01-06T04:13:10.390Z,7.20
2023-01-06T04:15:41.409Z,8.70
2023-01-06T04:18:10.432Z,9.30
2023-01-06T04:20:40.872Z,8.20
2023-01-06T04:23:18.665Z,9.30
2023-01-06T04:25:47.552Z,11.40
2023-01-06T04:28:18.513Z,10.10
2023-01-06T04:30:46.622Z,8.90
2023-01-06T04:33:15.683Z,9.50
2023-01-06T04:35:44.934Z,7.00
2023-01-06T04:38:17.876Z,6.30
2023-01-06T04:40:45.972Z,6.50
2023-01-06T04:43:16.867Z,9.80
2023-01-06T04:45:45.728Z,8.90
2023-01-06T04:48:15.187Z,8.40
2023-01-06T04:50:43.333Z,6.70
2023-01-06T04:53:13.384Z,9.00
2023-01-06T04:55:42.325Z,9.10
2023-01-06T04:58:10.238Z,6.60
2023-01-06T05:00:38.328Z,5.90
2023-01-06T05:03:06.329Z,9.50
2023-01-06T05:05:34.435Z,7.00
2023-01-06T05:08:02.426Z,7.10
2023-01-06T05:10:30.389Z,7.90
2023-01-06T05:12:58.356Z,10.10
2023-01-06T05:15:26.429Z,16.40
2023-01-06T05:17:54.455Z,14.20
2023-01-06T05:20:22.398Z,14.60
2023-01-06T05:22:50.392Z,11.10
2023-01-06T05:25:18.293Z,9.60
2023-01-06T05:27:46.268Z,12.40
2023-01-06T05:30:14.397Z,12.00
2023-01-06T05:32:42.507Z,9.10
2023-01-06T05:35:10.517Z,14.50
2023-01-06T05:37:38.368Z,19.30
2023-01-06T05:40:07.473Z,12.70
2023-01-06T05:42:35.347Z,15.20
2023-01-06T05:45:03.628Z,11.60
2023-01-06T05:47:31.529Z,11.40
2023-01-06T05:49:59.500Z,10.80
2023-01-06T05:52:27.397Z,14.20
2023-01-06T05:54:55.253Z,11.30
2023-01-06T05:57:23.371Z,11.80
2023-01-06T05:59:51.278Z,11.80
2023-01-06T06:02:19.270Z,12.40
2023-01-06T06:04:48.033Z,14.60
2023-01-06T06:07:16.070Z,15.50
2023-01-06T06:09:44.213Z,17.60
2023-01-06T06:12:13.446Z,19.10
2023-01-06T06:14:41.365Z,17.40
2023-01-06T06:17:09.485Z,17.70
2023-01-06T06:19:37.608Z,17.30
2023-01-06T06:22:05.784Z,20.40
2023-01-06T06:24:33.697Z,36.20
2023-01-06T06:27:01.749Z,41.90
2023-01-06T06:29:30.610Z,34.70
2023-01-06T06:31:59.317Z,18.20
2023-01-06T06:34:27.279Z,19.60
2023-01-06T06:36:55.359Z,19.80
2023-01-06T06:39:23.313Z,24.30
2023-01-06T06:41:51.243Z,81.80
2023-01-06T06:44:19.311Z,86.90
2023-01-06T06:46:47.322Z,32.70
2023-01-06T06:49:15.433Z,16.60
2023-01-06T06:51:43.610Z,13.10
2023-01-06T06:54:11.531Z,12.90
2023-01-06T06:56:39.546Z,12.10
2023-01-06T06:59:07.741Z,10.20
2023-01-06T07:01:35.826Z,11.50
2023-01-06T07:04:04.797Z,10.80
2023-01-06T07:06:32.824Z,23.10
2023-01-06T07:09:00.986Z,39.40
2023-01-06T07:11:29.094Z,67.20
2023-01-06T07:13:57.278Z,32.10
2023-01-06T07:16:27.408Z,14.50
2023-01-06T07:18:55.484Z,14.20
2023-01-06T07:21:23.394Z,10.40
2023-01-06T07:23:51.520Z,12.10
2023-01-06T07:26:19.656Z,10.20
2023-01-06T07:28:47.666Z,9.40
2023-01-06T07:31:15.841Z,10.40
2023-01-06T07:33:44.281Z,14.40
2023-01-06T07:36:12.353Z,10.90
2023-01-06T07:38:40.435Z,9.30
2023-01-06T07:41:08.503Z,9.40
2023-01-06T07:43:36.638Z,10.50
2023-01-06T07:46:04.942Z,10.10
2023-01-06T07:48:33.059Z,8.40
2023-01-06T07:51:01.143Z,11.00
2023-01-06T07:53:29.416Z,10.60
2023-01-06T07:55:57.382Z,9.90
2023-01-06T07:58:25.423Z,11.40
2023-01-06T08:00:53.598Z,9.60
2023-01-06T08:03:21.748Z,10.80
2023-01-06T08:05:49.961Z,10.40
2023-01-06T08:08:19.133Z,12.60
2023-01-06T08:10:47.196Z,13.00
2023-01-06T08:13:15.817Z,12.20
2023-01-06T08:15:43.868Z,12.10
2023-01-06T08:18:11.929Z,16.00
2023-01-06T08:20:40.371Z,18.70
2023-01-06T08:23:08.366Z,18.80
2023-01-06T08:25:36.543Z,20.50
2023-01-06T08:28:04.792Z,19.70
2023-01-06T08:30:40.339Z,17.60
2023-01-06T08:33:08.570Z,14.70
2023-01-06T08:35:36.620Z,15.00
2023-01-06T08:38:04.671Z,12.50
2023-01-06T08:40:32.694Z,8.70
2023-01-06T08:43:00.627Z,13.40
2023-01-06T08:45:28.711Z,9.90
2023-01-06T08:47:56.969Z,10.50
2023-01-06T08:50:26.636Z,7.90
2023-01-06T08:52:56.110Z,8.30
2023-01-06T08:55:24.209Z,10.90
2023-01-06T08:57:54.689Z,10.80
2023-01-06T09:00:23.940Z,7.60
2023-01-06T09:02:52.172Z,8.90
2023-01-06T09:05:20.485Z,11.10
2023-01-06T09:07:51.714Z,8.50
2023-01-06T09:10:19.829Z,9.30
2023-01-06T09:12:49.932Z,11.60
2023-01-06T09:15:19.941Z,10.00
2023-01-06T09:17:47.854Z,9.10
2023-01-06T09:20:16.299Z,10.90
2023-01-06T09:22:47.059Z,14.20
2023-01-06T09:25:15.074Z,10.00
2023-01-06T09:27:43.468Z,10.40
2023-01-06T09:30:13.626Z,14.00
2023-01-06T09:32:41.644Z,10.10
2023-01-06T09:35:12.076Z,10.80
2023-01-06T09:37:40.035Z,9.50
2023-01-06T09:40:19.176Z,12.70
2023-01-06T09:43:13.113Z,12.40
2023-01-06T09:45:55.658Z,14.10
2023-01-06T09:48:33.600Z,11.10
2023-01-06T09:51:06.950Z,14.40
2023-01-06T09:53:41.741Z,14.00
2023-01-06T09:56:21.959Z,11.00
2023-01-06T09:59:12.995Z,13.60
2023-01-06T10:01:49.028Z,11.50
2023-01-06T10:10:16.419Z,15.60
2023-01-06T10:13:01.450Z,12.10
2023-01-06T10:15:54.085Z,22.40
2023-01-06T10:18:22.068Z,17.20
2023-01-06T10:21:07.884Z,12.00
2023-01-06T10:24:08.265Z,11.50
2023-01-06T10:26:59.336Z,18.10
2023-01-06T10:29:36.280Z,16.30
2023-01-06T10:32:20.593Z,15.30
2023-01-06T10:34:52.101Z,20.20
2023-01-06T10:37:37.133Z,14.90
2023-01-06T10:40:32.263Z,25.10
2023-01-06T10:43:13.915Z,15.40
2023-01-06T10:45:46.626Z,16.70
2023-01-06T10:48:27.386Z,23.10
2023-01-06T10:50:58.362Z,18.20
2023-01-06T10:53:26.289Z,15.70
2023-01-06T10:56:04.330Z,51.70
2023-01-06T10:59:01.822Z,20.70
2023-01-06T11:01:33.922Z,12.70
2023-01-06T11:04:11.984Z,13.40
2023-01-06T11:07:01.738Z,12.70
2023-01-06T11:09:41.811Z,13.60
2023-01-06T11:12:31.834Z,14.60
2023-01-06T11:15:07.717Z,13.00
2023-01-06T11:17:37.668Z,15.80
2023-01-06T11:20:33.969Z,12.70
2023-01-06T11:23:24.233Z,15.00
2023-01-06T11:26:04.239Z,18.60
2023-01-06T11:28:34.404Z,15.40
2023-01-06T11:31:09.293Z,22.10
2023-01-06T11:33:49.431Z,24.00
2023-01-06T11:36:21.654Z,34.50
2023-01-06T11:39:00.165Z,23.90
2023-01-06T11:41:42.571Z,17.70
2023-01-06T11:44:34.290Z,16.80
2023-01-06T11:47:19.373Z,53.30
2023-01-06T11:50:01.215Z,32.20
2023-01-06T11:52:33.234Z,32.40
2023-01-06T11:55:07.031Z,33.50
2023-01-06T12:00:53.334Z,33.80
2023-01-06T12:03:21.419Z,25.30
2023-01-06T12:06:18.800Z,27.80
2023-01-06T12:09:22.503Z,21.30
2023-01-06T12:11:50.568Z,22.50
2023-01-06T12:14:28.860Z,26.80
2023-01-06T12:17:28.799Z,34.20
2023-01-06T12:20:19.297Z,29.30
2023-01-06T12:22:51.726Z,26.80
2023-01-06T12:25:26.793Z,36.90
2023-01-06T12:28:02.220Z,30.20
2023-01-06T12:30:59.407Z,32.80
2023-01-06T12:33:37.079Z,29.50
2023-01-06T12:36:36.663Z,33.30
2023-01-06T12:39:19.307Z,33.50
2023-01-06T12:41:57.433Z,35.20
2023-01-06T12:44:43.783Z,37.50
2023-01-06T12:47:34.528Z,34.30
2023-01-06T12:50:22.666Z,74.00
2023-01-06T12:53:04.893Z,57.50
2023-01-06T12:55:52.977Z,44.70
2023-01-06T12:58:29.223Z,34.00
2023-01-06T13:01:06.839Z,29.70
2023-01-06T13:04:19.490Z,38.50
2023-01-06T13:07:11.043Z,51.90
2023-01-06T13:09:51.096Z,42.10
2023-01-06T13:12:19.046Z,58.90
2023-01-06T13:15:02.447Z,41.50
2023-01-06T13:17:53.276Z,43.60
2023-01-06T13:20:30.307Z,34.50
2023-01-06T13:23:04.483Z,39.10
2023-01-06T13:25:54.471Z,38.80
2023-01-06T13:28:44.584Z,33.70
2023-01-06T13:31:50.361Z,42.30
2023-01-06T13:34:34.099Z,31.60
2023-01-06T13:37:28.664Z,33.90
2023-01-06T13:40:17.623Z,35.00
2023-01-06T13:43:08.197Z,62.50
2023-01-06T13:45:42.717Z,43.10
2023-01-06T13:48:28.919Z,32.00
2023-01-06T13:51:05.441Z,74.20
2023-01-06T13:53:41.879Z,61.40
2023-01-06T13:56:12.812Z,38.90
2023-01-06T13:58:50.895Z,25.10
2023-01-06T14:01:19.036Z,26.00
2023-01-06T14:03:53.074Z,39.30
2023-01-06T14:06:23.795Z,36.30
2023-01-06T14:08:57.868Z,27.90
2023-01-06T14:11:41.764Z,27.10
2023-01-06T14:14:40.562Z,43.90
2023-01-06T14:17:29.987Z,31.90
2023-01-06T14:20:01.190Z,37.20
2023-01-06T14:22:32.045Z,28.10
2023-01-06T14:25:05.621Z,25.10
2023-01-06T14:27:45.626Z,22.10
2023-01-06T14:30:34.353Z,34.70
2023-01-06T14:33:05.200Z,34.50
2023-01-06T14:35:46.870Z,27.30
2023-01-06T14:38:20.940Z,24.00
2023-01-06T14:41:03.885Z,54.40
2023-01-06T14:43:54.808Z,46.20
2023-01-06T14:46:31.177Z,27.10
2023-01-06T14:49:13.376Z,31.60
2023-01-06T14:51:46.775Z,36.00
2023-01-06T14:54:17.346Z,38.00
2023-01-06T14:56:56.396Z,34.00
2023-01-06T14:59:24.507Z,28.00
2023-01-06T15:02:05.117Z,30.40
2023-01-06T15:04:35.697Z,33.90
2023-01-06T15:07:07.851Z,35.10
2023-01-06T15:09:35.833Z,33.50
2023-01-06T15:12:03.973Z,34.90
2023-01-06T15:14:35.554Z,33.00
2023-01-06T15:17:07.476Z,29.20
2023-01-06T15:19:37.906Z,35.90
2023-01-06T15:22:10.826Z,44.60
2023-01-06T15:24:43.993Z,26.80
2023-01-06T15:27:16.148Z,50.90
2023-01-06T15:29:55.152Z,56.70
2023-01-06T15:32:27.111Z,75.30
2023-01-06T15:34:59.606Z,50.10
2023-01-06T15:37:35.525Z,83.60
2023-01-06T15:40:07.627Z,50.20
2023-01-06T15:42:40.241Z,64.70
2023-01-06T15:45:25.592Z,48.40
2023-01-06T15:47:57.653Z,36.10
2023-01-06T15:50:34.009Z,51.00
2023-01-06T15:55:39.406Z,50.60
2023-01-06T15:58:26.995Z,41.20
2023-01-06T16:01:07.480Z,46.00
2023-01-06T16:03:38.706Z,59.30
2023-01-06T16:06:15.396Z,73.00
2023-01-06T16:08:47.266Z,69.00
2023-01-06T16:11:37.088Z,56.80
2023-01-06T16:14:24.579Z,59.90
2023-01-06T16:17:00.657Z,74.70
2023-01-06T16:22:08.274Z,53.10
2023-01-06T16:24:36.359Z,50.90
2023-01-06T16:27:07.806Z,49.80
2023-01-06T16:29:38.813Z,57.70
2023-01-06T16:32:32.430Z,60.10
2023-01-06T16:35:16.185Z,60.00
2023-01-06T16:37:47.023Z,60.50
2023-01-06T16:40:19.173Z,55.20
2023-01-06T16:42:49.879Z,51.60
2023-01-06T16:45:35.579Z,61.50
2023-01-06T16:48:03.734Z,54.20
2023-01-06T16:50:40.528Z,61.70
2023-01-06T16:53:22.515Z,53.00
2023-01-06T16:55:55.213Z,68.50
2023-01-06T16:58:26.694Z,61.20
2023-01-06T17:01:08.490Z,62.20
2023-01-06T17:03:39.819Z,54.00
2023-01-06T17:06:18.864Z,48.90
2023-01-06T17:08:51.213Z,61.20
2023-01-06T17:11:24.612Z,98.80
2023-01-06T17:14:15.621Z,222.10
2023-01-06T17:16:47.494Z,198.00
2023-01-06T17:19:20.716Z,74.30
2023-01-06T17:21:57.861Z,48.90
2023-01-06T17:24:29.108Z,44.90
2023-01-06T17:27:07.711Z,56.20
2023-01-06T17:29:38.364Z,55.10
2023-01-06T17:32:29.382Z,179.00
2023-01-06T17:34:59.930Z,228.90
2023-01-06T17:37:30.711Z,101.80
2023-01-06T17:39:58.857Z,90.50
2023-01-06T17:42:33.113Z,54.10
2023-01-06T17:45:01.255Z,57.10
2023-01-06T17:47:46.343Z,139.50
2023-01-06T17:50:35.896Z,68.30
2023-01-06T17:53:34.777Z,57.20
2023-01-06T17:56:10.175Z,31.00
2023-01-06T17:58:43.122Z,27.50
2023-01-06T18:01:25.723Z,40.80
2023-01-06T18:03:59.654Z,86.60
2023-01-06T18:06:39.971Z,62.40
2023-01-06T18:09:21.305Z,105.00
2023-01-06T18:11:58.797Z,44.10
2023-01-06T18:14:44.024Z,44.50
2023-01-06T18:17:30.067Z,32.80
2023-01-06T18:20:01.239Z,40.10
2023-01-06T18:22:33.911Z,67.70
2023-01-06T18:25:09.299Z,47.20
2023-01-06T18:27:40.428Z,53.00
2023-01-06T18:30:21.021Z,49.00
2023-01-06T18:32:51.882Z,45.10
2023-01-06T18:35:26.535Z,31.90
2023-01-06T18:38:03.733Z,38.20
2023-01-06T18:40:31.772Z,48.80
2023-01-06T18:43:37.538Z,61.70
2023-01-06T18:46:18.025Z,28.10
2023-01-06T18:48:48.989Z,44.30
2023-01-06T18:51:23.782Z,61.40
2023-01-06T18:53:54.763Z,73.60
2023-01-06T18:56:27.009Z,39.40
2023-01-06T18:58:58.997Z,18.70
2023-01-06T19:01:43.603Z,37.80
2023-01-06T19:04:30.859Z,47.70
2023-01-06T19:07:18.183Z,120.60
2023-01-06T19:09:50.050Z,39.30
2023-01-06T19:12:32.335Z,57.40
2023-01-06T19:15:24.749Z,22.70
2023-01-06T19:17:55.561Z,23.70
2023-01-06T19:20:33.329Z,39.30
2023-01-06T19:23:26.708Z,48.40
2023-01-06T19:26:14.521Z,32.40
2023-01-06T19:28:42.455Z,43.60
2023-01-06T19:31:22.554Z,32.60
2023-01-06T19:34:01.318Z,78.30
2023-01-06T19:36:50.205Z,37.50
2023-01-06T19:39:31.980Z,57.50
2023-01-06T19:42:27.628Z,34.00
2023-01-06T19:45:11.992Z,102.90
2023-01-06T19:47:43.138Z,64.20
2023-01-06T19:50:25.810Z,260.20
2023-01-06T19:52:59.402Z,59.60
2023-01-06T19:55:30.983Z,104.90
2023-01-06T19:58:10.286Z,98.90
2023-01-06T20:00:57.740Z,113.00
2023-01-06T20:03:37.289Z,98.50
2023-01-06T20:06:08.173Z,377.40
2023-01-06T20:08:36.227Z,128.10
2023-01-06T20:11:04.231Z,81.70
2023-01-06T20:13:32.341Z,47.00
2023-01-06T20:16:05.719Z,49.80
2023-01-06T20:18:33.976Z,47.60
2023-01-06T20:21:02.727Z,32.50
2023-01-06T20:23:32.663Z,32.90
2023-01-06T20:26:00.792Z,58.60
2023-01-06T20:28:29.068Z,29.60
2023-01-06T20:30:57.321Z,24.10
2023-01-06T20:33:25.437Z,29.30
2023-01-06T20:35:53.583Z,23.30
2023-01-06T20:38:21.653Z,33.60
2023-01-06T20:40:52.242Z,45.10
2023-01-06T20:43:20.231Z,34.30
2023-01-06T20:45:48.513Z,27.40
2023-01-06T20:48:16.712Z,113.20
2023-01-06T20:50:44.686Z,100.30
2023-01-06T20:53:12.816Z,236.00
2023-01-06T20:55:40.990Z,157.30
2023-01-06T20:58:09.020Z,109.80
2023-01-06T21:00:37.027Z,77.20
2023-01-06T21:03:08.071Z,115.40
2023-01-06T21:05:41.243Z,35.50
2023-01-06T21:08:09.103Z,26.40
2023-01-06T21:10:38.747Z,33.70
2023-01-06T21:13:06.862Z,28.70
2023-01-06T21:15:34.995Z,72.10
2023-01-06T21:18:03.097Z,40.50
2023-01-06T21:20:31.087Z,35.00
2023-01-06T21:22:59.197Z,26.30
2023-01-06T21:25:27.375Z,100.80
2023-01-06T21:27:56.175Z,35.40
2023-01-06T21:30:26.685Z,75.90
2023-01-06T21:32:57.107Z,37.00
2023-01-06T21:35:25.277Z,94.40
2023-01-06T21:37:55.712Z,190.70
2023-01-06T21:40:23.688Z,88.20
2023-01-06T21:43:10.280Z,80.10
2023-01-06T21:45:44.776Z,30.10
2023-01-06T21:48:15.488Z,34.00
2023-01-06T21:50:46.199Z,32.00
2023-01-06T21:53:14.365Z,30.30
2023-01-06T21:55:44.690Z,28.10
2023-01-06T21:58:12.757Z,29.40
2023-01-06T22:00:40.680Z,25.40
2023-01-06T22:03:08.693Z,37.20
2023-01-06T22:05:39.012Z,32.80
2023-01-06T22:08:11.756Z,22.70
2023-01-06T22:10:43.925Z,28.10
2023-01-06T22:13:17.553Z,25.70
2023-01-06T22:15:48.476Z,26.40
2023-01-06T22:18:19.178Z,34.50
2023-01-06T22:20:47.496Z,37.50
2023-01-06T22:23:19.254Z,73.90
2023-01-06T22:25:47.337Z,46.00
2023-01-06T22:28:15.399Z,109.00
2023-01-06T22:30:43.675Z,93.10
2023-01-06T22:33:11.749Z,65.10
2023-01-06T22:35:39.742Z,322.10
2023-01-06T22:38:07.852Z,549.30
2023-01-06T22:40:36.115Z,392.70
2023-01-06T22:43:09.623Z,275.80
2023-01-06T22:45:37.544Z,179.20
2023-01-06T22:48:08.584Z,169.20
2023-01-06T22:50:40.143Z,71.90
2023-01-06T22:53:08.034Z,37.50
2023-01-06T22:55:36.121Z,34.90
2023-01-06T22:58:07.330Z,29.20
2023-01-06T23:00:35.264Z,32.70
2023-01-06T23:03:03.408Z,36.00
2023-01-06T23:05:31.527Z,37.00
2023-01-06T23:07:59.539Z,231.40
2023-01-06T23:10:27.679Z,76.60
2023-01-06T23:12:55.560Z,76.10
2023-01-06T23:15:23.504Z,98.90
2023-01-06T23:17:51.525Z,128.30
2023-01-06T23:20:19.586Z,169.20
2023-01-06T23:22:47.532Z,285.10
2023-01-06T23:25:15.762Z,118.90
2023-01-06T23:27:43.667Z,86.20
2023-01-06T23:30:14.234Z,160.00
2023-01-06T23:32:42.159Z,141.00
2023-01-06T23:35:10.306Z,189.70
2023-01-06T23:37:38.302Z,70.10
2023-01-06T23:40:06.812Z,87.40
2023-01-06T23:42:48.123Z,42.30
2023-01-06T23:45:18.716Z,54.50
2023-01-06T23:47:46.704Z,52.20
2023-01-06T23:50:14.853Z,39.50
2023-01-06T23:52:42.870Z,30.10
2023-01-06T23:55:10.930Z,22.60
2023-01-06T23:57:39.078Z,23.10
